sensor_id;sensor_type;location;lat;lon;timestamp;P1;durP1;ratioP1;P2;durP2;ratioP2
6029;SDS011;3043;42.682;23.376;2022-07-06T00:01:27;17.80;;;15.33;;
6029;SDS011;3043;42.682;23.376;2022-07-06T00:03:53;16.70;;;14.97;;
6029;SDS011;3043;42.682;23.376;2022-07-06T00:06:18;20.80;;;14.93;;
6029;SDS011;3043;42.682;23.376;2022-07-06T00:08:44;19.87;;;15.97;;
6029;SDS011;3043;42.682;23.376;2022-07-06T00:11:09;19.07;;;15.47;;
6029;SDS011;3043;42.682;23.376;2022-07-06T00:13:35;16.67;;;14.97;;
6029;SDS011;3043;42.682;23.376;2022-07-06T00:16:01;17.63;;;15.47;;
6029;SDS011;3043;42.682;23.376;2022-07-06T00:18:27;20.77;;;16.33;;
6029;SDS011;3043;42.682;23.376;2022-07-06T00:20:52;18.77;;;16.27;;
6029;SDS011;3043;42.682;23.376;2022-07-06T00:23:17;18.47;;;15.87;;
6029;SDS011;3043;42.682;23.376;2022-07-06T00:25:43;21.43;;;15.80;;
6029;SDS011;3043;42.682;23.376;2022-07-06T00:28:09;18.30;;;15.93;;
6029;SDS011;3043;42.682;23.376;2022-07-06T00:30:34;19.13;;;15.87;;
6029;SDS011;3043;42.682;23.376;2022-07-06T00:33:00;18.20;;;16.03;;
6029;SDS011;3043;42.682;23.376;2022-07-06T00:35:25;20.00;;;17.00;;
6029;SDS011;3043;42.682;23.376;2022-07-06T00:37:51;18.97;;;15.93;;
6029;SDS011;3043;42.682;23.376;2022-07-06T00:40:17;19.90;;;16.03;;
6029;SDS011;3043;42.682;23.376;2022-07-06T00:42:43;22.00;;;16.97;;
6029;SDS011;3043;42.682;23.376;2022-07-06T00:45:11;21.37;;;16.53;;
6029;SDS011;3043;42.682;23.376;2022-07-06T00:47:38;23.80;;;18.77;;
6029;SDS011;3043;42.682;23.376;2022-07-06T00:50:04;21.70;;;17.30;;
6029;SDS011;3043;42.682;23.376;2022-07-06T00:52:42;20.43;;;17.23;;
6029;SDS011;3043;42.682;23.376;2022-07-06T00:55:16;19.83;;;17.77;;
6029;SDS011;3043;42.682;23.376;2022-07-06T00:57:44;22.83;;;18.23;;
6029;SDS011;3043;42.682;23.376;2022-07-06T01:00:11;21.77;;;18.37;;
6029;SDS011;3043;42.682;23.376;2022-07-06T01:02:39;20.93;;;18.03;;
6029;SDS011;3043;42.682;23.376;2022-07-06T01:05:05;20.83;;;17.63;;
6029;SDS011;3043;42.682;23.376;2022-07-06T01:07:32;20.20;;;17.33;;
6029;SDS011;3043;42.682;23.376;2022-07-06T01:09:58;24.20;;;18.73;;
6029;SDS011;3043;42.682;23.376;2022-07-06T01:12:23;23.73;;;19.63;;
6029;SDS011;3043;42.682;23.376;2022-07-06T01:14:50;23.63;;;18.50;;
6029;SDS011;3043;42.682;23.376;2022-07-06T01:17:16;21.17;;;18.03;;
6029;SDS011;3043;42.682;23.376;2022-07-06T01:19:42;21.77;;;19.13;;
6029;SDS011;3043;42.682;23.376;2022-07-06T01:22:08;22.63;;;18.40;;
6029;SDS011;3043;42.682;23.376;2022-07-06T01:24:34;23.00;;;18.80;;
6029;SDS011;3043;42.682;23.376;2022-07-06T01:27:01;21.60;;;19.30;;
6029;SDS011;3043;42.682;23.376;2022-07-06T01:29:28;25.03;;;19.77;;
6029;SDS011;3043;42.682;23.376;2022-07-06T01:31:54;25.53;;;21.77;;
6029;SDS011;3043;42.682;23.376;2022-07-06T01:34:20;25.43;;;21.57;;
6029;SDS011;3043;42.682;23.376;2022-07-06T01:36:46;25.50;;;21.37;;
6029;SDS011;3043;42.682;23.376;2022-07-06T01:39:11;28.40;;;24.83;;
6029;SDS011;3043;42.682;23.376;2022-07-06T01:41:37;26.30;;;22.17;;
6029;SDS011;3043;42.682;23.376;2022-07-06T01:44:03;29.10;;;25.10;;
6029;SDS011;3043;42.682;23.376;2022-07-06T01:46:29;28.90;;;25.80;;
6029;SDS011;3043;42.682;23.376;2022-07-06T01:48:55;29.40;;;24.17;;
6029;SDS011;3043;42.682;23.376;2022-07-06T01:51:21;28.37;;;24.23;;
6029;SDS011;3043;42.682;23.376;2022-07-06T01:53:48;34.23;;;27.23;;
6029;SDS011;3043;42.682;23.376;2022-07-06T01:56:13;32.10;;;25.37;;
6029;SDS011;3043;42.682;23.376;2022-07-06T01:58:39;30.07;;;26.27;;
6029;SDS011;3043;42.682;23.376;2022-07-06T02:01:09;33.43;;;26.77;;
6029;SDS011;3043;42.682;23.376;2022-07-06T02:03:35;28.80;;;25.57;;
6029;SDS011;3043;42.682;23.376;2022-07-06T02:06:02;28.27;;;23.87;;
6029;SDS011;3043;42.682;23.376;2022-07-06T02:08:27;26.70;;;23.77;;
6029;SDS011;3043;42.682;23.376;2022-07-06T02:10:53;28.27;;;24.23;;
6029;SDS011;3043;42.682;23.376;2022-07-06T02:13:19;26.93;;;21.23;;
6029;SDS011;3043;42.682;23.376;2022-07-06T02:15:45;23.87;;;21.10;;
6029;SDS011;3043;42.682;23.376;2022-07-06T02:18:10;21.23;;;18.50;;
6029;SDS011;3043;42.682;23.376;2022-07-06T02:20:35;24.27;;;20.73;;
6029;SDS011;3043;42.682;23.376;2022-07-06T02:23:01;24.67;;;20.03;;
6029;SDS011;3043;42.682;23.376;2022-07-06T02:25:26;24.00;;;20.53;;
6029;SDS011;3043;42.682;23.376;2022-07-06T02:27:52;24.83;;;19.30;;
6029;SDS011;3043;42.682;23.376;2022-07-06T02:30:17;19.73;;;17.47;;
6029;SDS011;3043;42.682;23.376;2022-07-06T02:32:42;21.80;;;17.93;;
6029;SDS011;3043;42.682;23.376;2022-07-06T02:35:08;20.77;;;18.57;;
6029;SDS011;3043;42.682;23.376;2022-07-06T02:37:33;23.77;;;16.17;;
6029;SDS011;3043;42.682;23.376;2022-07-06T02:39:59;16.27;;;14.27;;
6029;SDS011;3043;42.682;23.376;2022-07-06T02:42:24;19.13;;;15.50;;
6029;SDS011;3043;42.682;23.376;2022-07-06T02:44:52;16.87;;;15.07;;
6029;SDS011;3043;42.682;23.376;2022-07-06T02:47:18;19.17;;;15.60;;
6029;SDS011;3043;42.682;23.376;2022-07-06T02:49:44;18.33;;;14.77;;
6029;SDS011;3043;42.682;23.376;2022-07-06T02:52:09;14.77;;;12.73;;
6029;SDS011;3043;42.682;23.376;2022-07-06T02:54:34;17.13;;;14.17;;
6029;SDS011;3043;42.682;23.376;2022-07-06T02:57:00;14.53;;;13.03;;
6029;SDS011;3043;42.682;23.376;2022-07-06T02:59:25;16.60;;;13.97;;
6029;SDS011;3043;42.682;23.376;2022-07-06T03:01:51;17.13;;;14.33;;
6029;SDS011;3043;42.682;23.376;2022-07-06T03:04:16;18.97;;;14.03;;
6029;SDS011;3043;42.682;23.376;2022-07-06T03:06:42;17.13;;;13.90;;
6029;SDS011;3043;42.682;23.376;2022-07-06T03:09:07;18.03;;;13.50;;
6029;SDS011;3043;42.682;23.376;2022-07-06T03:11:33;16.67;;;14.50;;
6029;SDS011;3043;42.682;23.376;2022-07-06T03:14:02;19.30;;;14.53;;
6029;SDS011;3043;42.682;23.376;2022-07-06T03:16:28;18.03;;;14.17;;
6029;SDS011;3043;42.682;23.376;2022-07-06T03:18:54;19.67;;;15.97;;
6029;SDS011;3043;42.682;23.376;2022-07-06T03:21:19;23.77;;;20.20;;
6029;SDS011;3043;42.682;23.376;2022-07-06T03:23:44;20.37;;;18.10;;
6029;SDS011;3043;42.682;23.376;2022-07-06T03:26:10;20.43;;;17.20;;
6029;SDS011;3043;42.682;23.376;2022-07-06T03:28:35;25.30;;;21.60;;
6029;SDS011;3043;42.682;23.376;2022-07-06T03:31:00;32.80;;;25.77;;
6029;SDS011;3043;42.682;23.376;2022-07-06T03:33:26;23.30;;;19.90;;
6029;SDS011;3043;42.682;23.376;2022-07-06T03:35:51;18.70;;;16.67;;
6029;SDS011;3043;42.682;23.376;2022-07-06T03:38:17;18.43;;;16.40;;
6029;SDS011;3043;42.682;23.376;2022-07-06T03:40:42;18.13;;;15.33;;
6029;SDS011;3043;42.682;23.376;2022-07-06T03:43:07;18.73;;;14.77;;
6029;SDS011;3043;42.682;23.376;2022-07-06T03:45:33;16.63;;;14.63;;
6029;SDS011;3043;42.682;23.376;2022-07-06T03:47:58;17.73;;;13.80;;
6029;SDS011;3043;42.682;23.376;2022-07-06T03:50:24;16.97;;;14.93;;
6029;SDS011;3043;42.682;23.376;2022-07-06T03:52:49;17.43;;;14.30;;
6029;SDS011;3043;42.682;23.376;2022-07-06T03:55:14;17.37;;;14.17;;
6029;SDS011;3043;42.682;23.376;2022-07-06T03:57:40;17.57;;;14.60;;
6029;SDS011;3043;42.682;23.376;2022-07-06T04:00:06;16.00;;;14.27;;
6029;SDS011;3043;42.682;23.376;2022-07-06T04:02:32;17.37;;;14.93;;
6029;SDS011;3043;42.682;23.376;2022-07-06T04:04:58;19.20;;;15.67;;
6029;SDS011;3043;42.682;23.376;2022-07-06T04:07:24;17.67;;;15.50;;
6029;SDS011;3043;42.682;23.376;2022-07-06T04:09:50;18.33;;;14.40;;
6029;SDS011;3043;42.682;23.376;2022-07-06T04:12:15;16.67;;;14.27;;
6029;SDS011;3043;42.682;23.376;2022-07-06T04:14:41;18.93;;;14.70;;
6029;SDS011;3043;42.682;23.376;2022-07-06T04:17:07;15.43;;;13.23;;
6029;SDS011;3043;42.682;23.376;2022-07-06T04:19:51;15.93;;;12.17;;
6029;SDS011;3043;42.682;23.376;2022-07-06T04:22:17;15.83;;;11.83;;
6029;SDS011;3043;42.682;23.376;2022-07-06T04:24:42;13.37;;;11.07;;
6029;SDS011;3043;42.682;23.376;2022-07-06T04:27:08;14.27;;;10.10;;
6029;SDS011;3043;42.682;23.376;2022-07-06T04:29:33;12.37;;;10.10;;
6029;SDS011;3043;42.682;23.376;2022-07-06T04:31:59;14.17;;;9.27;;
6029;SDS011;3043;42.682;23.376;2022-07-06T04:34:24;13.40;;;8.90;;
6029;SDS011;3043;42.682;23.376;2022-07-06T04:36:49;12.23;;;8.83;;
6029;SDS011;3043;42.682;23.376;2022-07-06T04:39:15;11.47;;;9.00;;
6029;SDS011;3043;42.682;23.376;2022-07-06T04:41:40;11.83;;;8.80;;
6029;SDS011;3043;42.682;23.376;2022-07-06T04:44:06;15.27;;;9.53;;
6029;SDS011;3043;42.682;23.376;2022-07-06T04:46:31;13.77;;;9.03;;
6029;SDS011;3043;42.682;23.376;2022-07-06T04:48:56;13.37;;;9.00;;
6029;SDS011;3043;42.682;23.376;2022-07-06T04:51:22;10.70;;;7.83;;
6029;SDS011;3043;42.682;23.376;2022-07-06T04:53:47;13.37;;;9.73;;
6029;SDS011;3043;42.682;23.376;2022-07-06T04:56:13;14.57;;;9.47;;
6029;SDS011;3043;42.682;23.376;2022-07-06T04:58:38;12.97;;;9.90;;
6029;SDS011;3043;42.682;23.376;2022-07-06T05:01:03;12.20;;;10.00;;
6029;SDS011;3043;42.682;23.376;2022-07-06T05:03:29;14.23;;;10.60;;
6029;SDS011;3043;42.682;23.376;2022-07-06T05:05:54;13.83;;;10.63;;
6029;SDS011;3043;42.682;23.376;2022-07-06T05:08:20;16.03;;;11.97;;
6029;SDS011;3043;42.682;23.376;2022-07-06T05:10:47;14.77;;;11.07;;
6029;SDS011;3043;42.682;23.376;2022-07-06T05:13:13;14.77;;;11.53;;
6029;SDS011;3043;42.682;23.376;2022-07-06T05:15:38;15.20;;;12.83;;
6029;SDS011;3043;42.682;23.376;2022-07-06T05:18:04;17.63;;;13.57;;
6029;SDS011;3043;42.682;23.376;2022-07-06T05:20:29;20.63;;;14.50;;
6029;SDS011;3043;42.682;23.376;2022-07-06T05:22:55;19.97;;;13.33;;
6029;SDS011;3043;42.682;23.376;2022-07-06T05:25:20;17.30;;;14.53;;
6029;SDS011;3043;42.682;23.376;2022-07-06T05:27:46;18.13;;;14.67;;
6029;SDS011;3043;42.682;23.376;2022-07-06T05:30:11;19.67;;;15.80;;
6029;SDS011;3043;42.682;23.376;2022-07-06T05:32:37;17.70;;;14.90;;
6029;SDS011;3043;42.682;23.376;2022-07-06T05:35:03;17.30;;;14.50;;
6029;SDS011;3043;42.682;23.376;2022-07-06T05:37:28;18.70;;;14.73;;
6029;SDS011;3043;42.682;23.376;2022-07-06T05:39:54;17.57;;;14.90;;
6029;SDS011;3043;42.682;23.376;2022-07-06T05:42:19;16.70;;;13.40;;
6029;SDS011;3043;42.682;23.376;2022-07-06T05:44:45;15.27;;;13.67;;
6029;SDS011;3043;42.682;23.376;2022-07-06T05:47:10;18.17;;;14.97;;
6029;SDS011;3043;42.682;23.376;2022-07-06T05:49:55;19.77;;;13.80;;
6029;SDS011;3043;42.682;23.376;2022-07-06T05:52:42;16.93;;;13.27;;
6029;SDS011;3043;42.682;23.376;2022-07-06T05:55:09;15.23;;;13.63;;
6029;SDS011;3043;42.682;23.376;2022-07-06T05:57:35;17.87;;;13.10;;
6029;SDS011;3043;42.682;23.376;2022-07-06T06:00:01;16.17;;;13.50;;
6029;SDS011;3043;42.682;23.376;2022-07-06T06:02:35;14.50;;;12.40;;
6029;SDS011;3043;42.682;23.376;2022-07-06T06:05:07;15.63;;;13.27;;
6029;SDS011;3043;42.682;23.376;2022-07-06T06:07:37;18.87;;;14.37;;
6029;SDS011;3043;42.682;23.376;2022-07-06T06:10:04;15.60;;;12.40;;
6029;SDS011;3043;42.682;23.376;2022-07-06T06:12:31;18.60;;;12.80;;
6029;SDS011;3043;42.682;23.376;2022-07-06T06:14:57;21.93;;;16.33;;
6029;SDS011;3043;42.682;23.376;2022-07-06T06:17:23;19.00;;;15.90;;
6029;SDS011;3043;42.682;23.376;2022-07-06T06:19:48;17.53;;;14.10;;
6029;SDS011;3043;42.682;23.376;2022-07-06T06:22:14;18.07;;;13.77;;
6029;SDS011;3043;42.682;23.376;2022-07-06T06:24:39;16.43;;;14.73;;
6029;SDS011;3043;42.682;23.376;2022-07-06T06:27:05;19.83;;;14.83;;
6029;SDS011;3043;42.682;23.376;2022-07-06T06:29:30;17.00;;;14.20;;
6029;SDS011;3043;42.682;23.376;2022-07-06T06:31:56;18.97;;;14.20;;
6029;SDS011;3043;42.682;23.376;2022-07-06T06:34:21;17.17;;;13.53;;
6029;SDS011;3043;42.682;23.376;2022-07-06T06:36:47;18.57;;;13.60;;
6029;SDS011;3043;42.682;23.376;2022-07-06T06:39:12;20.33;;;14.77;;
6029;SDS011;3043;42.682;23.376;2022-07-06T06:41:38;17.57;;;13.37;;
6029;SDS011;3043;42.682;23.376;2022-07-06T06:44:03;16.47;;;13.40;;
6029;SDS011;3043;42.682;23.376;2022-07-06T06:46:29;17.63;;;12.87;;
6029;SDS011;3043;42.682;23.376;2022-07-06T06:48:54;18.17;;;13.53;;
6029;SDS011;3043;42.682;23.376;2022-07-06T06:51:20;17.23;;;13.90;;
6029;SDS011;3043;42.682;23.376;2022-07-06T06:53:46;21.23;;;15.90;;
6029;SDS011;3043;42.682;23.376;2022-07-06T06:56:12;19.40;;;14.60;;
6029;SDS011;3043;42.682;23.376;2022-07-06T06:58:37;24.90;;;15.93;;
6029;SDS011;3043;42.682;23.376;2022-07-06T07:01:03;19.30;;;12.83;;
6029;SDS011;3043;42.682;23.376;2022-07-06T07:03:29;16.53;;;13.10;;
6029;SDS011;3043;42.682;23.376;2022-07-06T07:05:55;19.60;;;15.07;;
6029;SDS011;3043;42.682;23.376;2022-07-06T07:08:21;16.53;;;12.43;;
6029;SDS011;3043;42.682;23.376;2022-07-06T07:10:46;16.77;;;13.93;;
6029;SDS011;3043;42.682;23.376;2022-07-06T07:13:12;15.17;;;13.57;;
6029;SDS011;3043;42.682;23.376;2022-07-06T07:15:37;17.57;;;13.00;;
6029;SDS011;3043;42.682;23.376;2022-07-06T07:18:03;16.57;;;11.43;;
6029;SDS011;3043;42.682;23.376;2022-07-06T07:20:28;15.33;;;12.60;;
6029;SDS011;3043;42.682;23.376;2022-07-06T07:22:55;17.50;;;12.27;;
6029;SDS011;3043;42.682;23.376;2022-07-06T07:25:21;15.03;;;12.57;;
6029;SDS011;3043;42.682;23.376;2022-07-06T07:27:46;19.33;;;14.63;;
6029;SDS011;3043;42.682;23.376;2022-07-06T07:30:12;20.87;;;16.20;;
6029;SDS011;3043;42.682;23.376;2022-07-06T07:32:37;16.93;;;14.23;;
6029;SDS011;3043;42.682;23.376;2022-07-06T07:35:05;20.70;;;14.87;;
6029;SDS011;3043;42.682;23.376;2022-07-06T07:37:31;21.57;;;16.20;;
6029;SDS011;3043;42.682;23.376;2022-07-06T07:39:57;17.17;;;14.50;;
6029;SDS011;3043;42.682;23.376;2022-07-06T07:42:23;16.87;;;14.13;;
6029;SDS011;3043;42.682;23.376;2022-07-06T07:44:48;18.73;;;14.77;;
6029;SDS011;3043;42.682;23.376;2022-07-06T07:47:14;20.70;;;16.07;;
6029;SDS011;3043;42.682;23.376;2022-07-06T07:49:39;23.07;;;15.03;;
6029;SDS011;3043;42.682;23.376;2022-07-06T07:52:04;18.67;;;14.07;;
6029;SDS011;3043;42.682;23.376;2022-07-06T07:54:30;17.27;;;14.23;;
6029;SDS011;3043;42.682;23.376;2022-07-06T07:56:56;17.17;;;13.13;;
6029;SDS011;3043;42.682;23.376;2022-07-06T07:59:21;16.57;;;13.20;;
6029;SDS011;3043;42.682;23.376;2022-07-06T08:01:47;19.23;;;13.43;;
6029;SDS011;3043;42.682;23.376;2022-07-06T08:04:13;16.27;;;13.80;;
6029;SDS011;3043;42.682;23.376;2022-07-06T08:06:38;17.02;;;13.20;;
6029;SDS011;3043;42.682;23.376;2022-07-06T08:09:04;15.02;;;13.07;;
6029;SDS011;3043;42.682;23.376;2022-07-06T08:11:32;15.98;;;11.00;;
6029;SDS011;3043;42.682;23.376;2022-07-06T08:13:58;16.27;;;14.30;;
6029;SDS011;3043;42.682;23.376;2022-07-06T08:16:24;13.27;;;11.50;;
6029;SDS011;3043;42.682;23.376;2022-07-06T08:18:49;14.85;;;12.23;;
6029;SDS011;3043;42.682;23.376;2022-07-06T08:21:15;14.63;;;11.65;;
6029;SDS011;3043;42.682;23.376;2022-07-06T08:23:40;15.50;;;11.23;;
6029;SDS011;3043;42.682;23.376;2022-07-06T08:26:06;12.45;;;9.45;;
6029;SDS011;3043;42.682;23.376;2022-07-06T08:28:31;14.18;;;11.15;;
6029;SDS011;3043;42.682;23.376;2022-07-06T08:30:57;15.68;;;13.45;;
6029;SDS011;3043;42.682;23.376;2022-07-06T08:33:24;14.85;;;13.20;;
6029;SDS011;3043;42.682;23.376;2022-07-06T08:35:49;17.95;;;16.05;;
6029;SDS011;3043;42.682;23.376;2022-07-06T08:38:15;13.43;;;11.25;;
6029;SDS011;3043;42.682;23.376;2022-07-06T08:40:40;15.15;;;11.80;;
6029;SDS011;3043;42.682;23.376;2022-07-06T08:43:08;12.23;;;10.93;;
6029;SDS011;3043;42.682;23.376;2022-07-06T08:45:34;14.80;;;10.40;;
6029;SDS011;3043;42.682;23.376;2022-07-06T08:48:04;13.38;;;11.65;;
6029;SDS011;3043;42.682;23.376;2022-07-06T08:50:31;13.50;;;10.80;;
6029;SDS011;3043;42.682;23.376;2022-07-06T08:52:59;14.02;;;10.93;;
6029;SDS011;3043;42.682;23.376;2022-07-06T08:55:25;16.23;;;11.95;;
6029;SDS011;3043;42.682;23.376;2022-07-06T08:57:52;13.38;;;11.52;;
6029;SDS011;3043;42.682;23.376;2022-07-06T09:00:19;15.18;;;11.50;;
6029;SDS011;3043;42.682;23.376;2022-07-06T09:02:45;12.82;;;11.50;;
6029;SDS011;3043;42.682;23.376;2022-07-06T09:05:13;15.27;;;11.75;;
6029;SDS011;3043;42.682;23.376;2022-07-06T09:07:39;14.05;;;12.15;;
6029;SDS011;3043;42.682;23.376;2022-07-06T09:10:05;14.23;;;12.25;;
6029;SDS011;3043;42.682;23.376;2022-07-06T09:12:33;14.05;;;11.10;;
6029;SDS011;3043;42.682;23.376;2022-07-06T09:14:58;16.70;;;12.30;;
6029;SDS011;3043;42.682;23.376;2022-07-06T09:17:27;16.55;;;13.30;;
6029;SDS011;3043;42.682;23.376;2022-07-06T09:19:53;16.25;;;12.15;;
6029;SDS011;3043;42.682;23.376;2022-07-06T09:22:26;15.30;;;13.20;;
6029;SDS011;3043;42.682;23.376;2022-07-06T09:25:09;17.75;;;14.98;;
6029;SDS011;3043;42.682;23.376;2022-07-06T09:27:37;15.63;;;12.63;;
6029;SDS011;3043;42.682;23.376;2022-07-06T09:30:04;15.90;;;13.37;;
6029;SDS011;3043;42.682;23.376;2022-07-06T09:32:30;16.90;;;13.80;;
6029;SDS011;3043;42.682;23.376;2022-07-06T09:35:03;16.87;;;14.37;;
6029;SDS011;3043;42.682;23.376;2022-07-06T09:37:29;22.00;;;15.77;;
6029;SDS011;3043;42.682;23.376;2022-07-06T09:39:54;18.43;;;15.47;;
6029;SDS011;3043;42.682;23.376;2022-07-06T09:42:24;17.57;;;14.83;;
6029;SDS011;3043;42.682;23.376;2022-07-06T09:44:51;17.80;;;15.80;;
6029;SDS011;3043;42.682;23.376;2022-07-06T09:47:17;16.53;;;14.73;;
6029;SDS011;3043;42.682;23.376;2022-07-06T09:49:44;16.37;;;13.47;;
6029;SDS011;3043;42.682;23.376;2022-07-06T09:52:10;16.43;;;13.73;;
6029;SDS011;3043;42.682;23.376;2022-07-06T09:54:37;15.70;;;13.97;;
6029;SDS011;3043;42.682;23.376;2022-07-06T09:57:04;16.70;;;14.53;;
6029;SDS011;3043;42.682;23.376;2022-07-06T09:59:31;17.47;;;15.53;;
6029;SDS011;3043;42.682;23.376;2022-07-06T10:01:58;22.13;;;16.27;;
6029;SDS011;3043;42.682;23.376;2022-07-06T10:04:33;16.93;;;15.17;;
6029;SDS011;3043;42.682;23.376;2022-07-06T10:06:59;17.80;;;14.00;;
6029;SDS011;3043;42.682;23.376;2022-07-06T10:09:26;17.60;;;14.83;;
6029;SDS011;3043;42.682;23.376;2022-07-06T10:11:54;15.57;;;13.63;;
6029;SDS011;3043;42.682;23.376;2022-07-06T10:14:27;17.95;;;14.50;;
6029;SDS011;3043;42.682;23.376;2022-07-06T10:16:55;21.23;;;15.00;;
6029;SDS011;3043;42.682;23.376;2022-07-06T10:19:22;16.63;;;14.55;;
6029;SDS011;3043;42.682;23.376;2022-07-06T10:21:48;17.20;;;14.63;;
6029;SDS011;3043;42.682;23.376;2022-07-06T10:24:14;16.83;;;14.38;;
6029;SDS011;3043;42.682;23.376;2022-07-06T10:26:40;18.38;;;14.45;;
6029;SDS011;3043;42.682;23.376;2022-07-06T10:29:06;15.82;;;14.10;;
6029;SDS011;3043;42.682;23.376;2022-07-06T10:31:33;16.90;;;13.07;;
6029;SDS011;3043;42.682;23.376;2022-07-06T10:34:03;16.60;;;14.90;;
6029;SDS011;3043;42.682;23.376;2022-07-06T10:36:30;17.88;;;14.45;;
6029;SDS011;3043;42.682;23.376;2022-07-06T10:38:56;17.27;;;14.98;;
6029;SDS011;3043;42.682;23.376;2022-07-06T10:41:32;17.15;;;14.65;;
6029;SDS011;3043;42.682;23.376;2022-07-06T10:44:14;15.85;;;13.77;;
6029;SDS011;3043;42.682;23.376;2022-07-06T10:46:49;16.77;;;14.18;;
6029;SDS011;3043;42.682;23.376;2022-07-06T10:49:17;20.13;;;14.90;;
6029;SDS011;3043;42.682;23.376;2022-07-06T10:51:43;18.35;;;15.13;;
6029;SDS011;3043;42.682;23.376;2022-07-06T10:54:09;15.35;;;13.75;;
6029;SDS011;3043;42.682;23.376;2022-07-06T10:56:42;14.15;;;12.75;;
6029;SDS011;3043;42.682;23.376;2022-07-06T11:04:42;18.27;;;14.63;;
6029;SDS011;3043;42.682;23.376;2022-07-06T11:07:20;16.05;;;14.25;;
6029;SDS011;3043;42.682;23.376;2022-07-06T11:09:55;16.10;;;14.40;;
6029;SDS011;3043;42.682;23.376;2022-07-06T11:12:22;16.20;;;14.50;;
6029;SDS011;3043;42.682;23.376;2022-07-06T11:14:48;17.80;;;15.93;;
6029;SDS011;3043;42.682;23.376;2022-07-06T11:17:15;18.07;;;16.20;;
6029;SDS011;3043;42.682;23.376;2022-07-06T11:19:48;18.73;;;16.83;;
6029;SDS011;3043;42.682;23.376;2022-07-06T11:22:21;18.73;;;16.83;;
6029;SDS011;3043;42.682;23.376;2022-07-06T11:24:49;17.80;;;15.95;;
6029;SDS011;3043;42.682;23.376;2022-07-06T11:27:16;22.63;;;16.57;;
6029;SDS011;3043;42.682;23.376;2022-07-06T11:29:42;24.33;;;17.73;;
6029;SDS011;3043;42.682;23.376;2022-07-06T11:32:10;17.63;;;16.03;;
6029;SDS011;3043;42.682;23.376;2022-07-06T11:34:37;20.37;;;18.27;;
6029;SDS011;3043;42.682;23.376;2022-07-06T11:37:09;18.17;;;16.33;;
6029;SDS011;3043;42.682;23.376;2022-07-06T11:39:37;19.23;;;17.20;;
6029;SDS011;3043;42.682;23.376;2022-07-06T11:42:07;16.97;;;15.27;;
6029;SDS011;3043;42.682;23.376;2022-07-06T11:44:34;19.77;;;15.27;;
6029;SDS011;3043;42.682;23.376;2022-07-06T11:47:01;18.90;;;16.27;;
6029;SDS011;3043;42.682;23.376;2022-07-06T11:49:29;18.87;;;16.77;;
6029;SDS011;3043;42.682;23.376;2022-07-06T11:51:55;18.17;;;16.10;;
6029;SDS011;3043;42.682;23.376;2022-07-06T11:54:21;17.60;;;15.90;;
6029;SDS011;3043;42.682;23.376;2022-07-06T11:56:51;18.23;;;16.33;;
6029;SDS011;3043;42.682;23.376;2022-07-06T11:59:28;16.97;;;14.57;;
6029;SDS011;3043;42.682;23.376;2022-07-06T12:02:05;18.60;;;16.67;;
6029;SDS011;3043;42.682;23.376;2022-07-06T12:04:32;16.13;;;14.47;;
6029;SDS011;3043;42.682;23.376;2022-07-06T12:07:02;18.70;;;16.80;;
6029;SDS011;3043;42.682;23.376;2022-07-06T12:09:32;17.53;;;15.83;;
6029;SDS011;3043;42.682;23.376;2022-07-06T12:11:59;17.83;;;15.70;;
6029;SDS011;3043;42.682;23.376;2022-07-06T12:14:28;17.93;;;16.10;;
6029;SDS011;3043;42.682;23.376;2022-07-06T12:16:54;17.80;;;16.00;;
6029;SDS011;3043;42.682;23.376;2022-07-06T12:19:23;16.90;;;15.10;;
6029;SDS011;3043;42.682;23.376;2022-07-06T12:21:49;16.53;;;14.93;;
6029;SDS011;3043;42.682;23.376;2022-07-06T12:24:27;16.33;;;14.77;;
6029;SDS011;3043;42.682;23.376;2022-07-06T12:26:55;17.57;;;14.87;;
6029;SDS011;3043;42.682;23.376;2022-07-06T12:29:21;17.43;;;14.57;;
6029;SDS011;3043;42.682;23.376;2022-07-06T12:31:51;15.70;;;14.10;;
6029;SDS011;3043;42.682;23.376;2022-07-06T12:34:25;16.80;;;15.00;;
6029;SDS011;3043;42.682;23.376;2022-07-06T12:36:53;14.77;;;13.27;;
6029;SDS011;3043;42.682;23.376;2022-07-06T12:39:23;14.50;;;12.87;;
6029;SDS011;3043;42.682;23.376;2022-07-06T12:41:51;15.50;;;13.90;;
6029;SDS011;3043;42.682;23.376;2022-07-06T12:44:18;14.87;;;13.40;;
6029;SDS011;3043;42.682;23.376;2022-07-06T12:46:46;14.60;;;13.20;;
6029;SDS011;3043;42.682;23.376;2022-07-06T12:49:20;13.07;;;11.67;;
6029;SDS011;3043;42.682;23.376;2022-07-06T12:54:20;14.27;;;12.77;;
6029;SDS011;3043;42.682;23.376;2022-07-06T12:57:05;15.63;;;12.00;;
6029;SDS011;3043;42.682;23.376;2022-07-06T12:59:31;14.13;;;12.10;;
6029;SDS011;3043;42.682;23.376;2022-07-06T13:01:59;14.20;;;12.17;;
6029;SDS011;3043;42.682;23.376;2022-07-06T13:04:26;15.23;;;13.20;;
6029;SDS011;3043;42.682;23.376;2022-07-06T13:06:54;16.13;;;11.00;;
6029;SDS011;3043;42.682;23.376;2022-07-06T13:09:20;12.90;;;11.53;;
6029;SDS011;3043;42.682;23.376;2022-07-06T13:11:46;12.77;;;10.77;;
6029;SDS011;3043;42.682;23.376;2022-07-06T13:14:13;13.67;;;11.87;;
6029;SDS011;3043;42.682;23.376;2022-07-06T13:16:39;13.17;;;11.63;;
6029;SDS011;3043;42.682;23.376;2022-07-06T13:19:05;14.03;;;10.37;;
6029;SDS011;3043;42.682;23.376;2022-07-06T13:21:30;10.90;;;9.70;;
6029;SDS011;3043;42.682;23.376;2022-07-06T13:23:56;11.77;;;9.90;;
6029;SDS011;3043;42.682;23.376;2022-07-06T13:26:21;10.77;;;8.90;;
6029;SDS011;3043;42.682;23.376;2022-07-06T13:28:47;11.37;;;9.10;;
6029;SDS011;3043;42.682;23.376;2022-07-06T13:31:12;11.47;;;8.70;;
6029;SDS011;3043;42.682;23.376;2022-07-06T13:33:38;10.70;;;9.27;;
6029;SDS011;3043;42.682;23.376;2022-07-06T13:36:03;10.33;;;8.97;;
6029;SDS011;3043;42.682;23.376;2022-07-06T13:38:29;10.23;;;7.40;;
6029;SDS011;3043;42.682;23.376;2022-07-06T13:40:55;9.53;;;7.20;;
6029;SDS011;3043;42.682;23.376;2022-07-06T13:43:20;10.23;;;7.17;;
6029;SDS011;3043;42.682;23.376;2022-07-06T13:45:46;8.50;;;5.93;;
6029;SDS011;3043;42.682;23.376;2022-07-06T13:48:12;9.07;;;6.00;;
6029;SDS011;3043;42.682;23.376;2022-07-06T13:50:38;9.67;;;6.50;;
6029;SDS011;3043;42.682;23.376;2022-07-06T13:53:04;8.60;;;5.37;;
6029;SDS011;3043;42.682;23.376;2022-07-06T13:55:30;7.57;;;5.13;;
6029;SDS011;3043;42.682;23.376;2022-07-06T13:57:56;8.93;;;4.83;;
6029;SDS011;3043;42.682;23.376;2022-07-06T14:00:21;10.63;;;6.30;;
6029;SDS011;3043;42.682;23.376;2022-07-06T14:02:47;9.67;;;7.40;;
6029;SDS011;3043;42.682;23.376;2022-07-06T14:05:13;8.50;;;5.47;;
6029;SDS011;3043;42.682;23.376;2022-07-06T14:07:38;7.17;;;4.50;;
6029;SDS011;3043;42.682;23.376;2022-07-06T14:10:04;6.63;;;4.63;;
6029;SDS011;3043;42.682;23.376;2022-07-06T14:12:30;6.80;;;4.47;;
6029;SDS011;3043;42.682;23.376;2022-07-06T14:14:56;8.57;;;4.93;;
6029;SDS011;3043;42.682;23.376;2022-07-06T14:17:21;6.80;;;4.83;;
6029;SDS011;3043;42.682;23.376;2022-07-06T14:19:48;7.57;;;5.00;;
6029;SDS011;3043;42.682;23.376;2022-07-06T14:22:14;7.70;;;4.43;;
6029;SDS011;3043;42.682;23.376;2022-07-06T14:24:39;7.17;;;4.53;;
6029;SDS011;3043;42.682;23.376;2022-07-06T14:27:04;6.67;;;4.40;;
6029;SDS011;3043;42.682;23.376;2022-07-06T14:29:30;7.93;;;4.20;;
6029;SDS011;3043;42.682;23.376;2022-07-06T14:31:55;6.40;;;4.37;;
6029;SDS011;3043;42.682;23.376;2022-07-06T14:34:21;6.73;;;4.07;;
6029;SDS011;3043;42.682;23.376;2022-07-06T14:36:46;6.20;;;3.97;;
6029;SDS011;3043;42.682;23.376;2022-07-06T14:39:12;8.43;;;4.40;;
6029;SDS011;3043;42.682;23.376;2022-07-06T14:41:38;7.83;;;4.40;;
6029;SDS011;3043;42.682;23.376;2022-07-06T14:44:04;7.63;;;4.30;;